Terminal Aerodrome Forecast
Issued by NWS

Home | Current Version | Previous Version | Graphics & Text | Print | Product List | Glossary Off
Versions: 1 2 3 4 5 6 7 8 9 10 11 12 13 14

001
FTUS42 KMHX 291022 AAA
TAFPGV
TAF AMD
KPGV 291022Z 2910/3006 22007KT P6SM BKN019
     FM291400 22010G15KT P6SM SCT015
     FM300000 20008KT P6SM FEW250
      AMD LTD TO CLD VIS AND WIND=

USA.gov is the U.S. government's official web portal to all federal, state and local government web resources and services.